sensor_id;sensor_type;location;lat;lon;timestamp;temperature;humidity
43641;DHT22;72791;52.546;13.570;2024-02-21T00:01:04;7.60;99.90
43641;DHT22;72791;52.546;13.570;2024-02-21T00:03:35;7.60;99.90
43641;DHT22;72791;52.546;13.570;2024-02-21T00:06:02;7.60;99.90
43641;DHT22;72791;52.546;13.570;2024-02-21T00:08:28;7.60;99.90
43641;DHT22;72791;52.546;13.570;2024-02-21T00:10:53;7.60;99.90
43641;DHT22;72791;52.546;13.570;2024-02-21T00:13:20;7.60;99.90
43641;DHT22;72791;52.546;13.570;2024-02-21T00:15:47;7.60;99.90
43641;DHT22;72791;52.546;13.570;2024-02-21T00:18:16;7.60;99.90
43641;DHT22;72791;52.546;13.570;2024-02-21T00:20:45;7.60;99.90
43641;DHT22;72791;52.546;13.570;2024-02-21T00:23:10;7.60;99.90
43641;DHT22;72791;52.546;13.570;2024-02-21T00:25:36;7.60;99.90
43641;DHT22;72791;52.546;13.570;2024-02-21T00:28:03;7.60;99.90
43641;DHT22;72791;52.546;13.570;2024-02-21T00:30:29;7.60;99.90
43641;DHT22;72791;52.546;13.570;2024-02-21T00:32:54;7.60;99.90
43641;DHT22;72791;52.546;13.570;2024-02-21T00:35:22;7.60;99.90
43641;DHT22;72791;52.546;13.570;2024-02-21T00:37:48;7.60;99.90
43641;DHT22;72791;52.546;13.570;2024-02-21T00:40:14;7.60;99.90
43641;DHT22;72791;52.546;13.570;2024-02-21T00:42:45;7.60;99.90
43641;DHT22;72791;52.546;13.570;2024-02-21T00:45:11;7.60;99.90
43641;DHT22;72791;52.546;13.570;2024-02-21T00:47:38;7.60;99.90
43641;DHT22;72791;52.546;13.570;2024-02-21T00:50:05;7.60;99.90
43641;DHT22;72791;52.546;13.570;2024-02-21T00:52:32;7.60;99.90
43641;DHT22;72791;52.546;13.570;2024-02-21T00:54:58;7.60;99.90
43641;DHT22;72791;52.546;13.570;2024-02-21T00:57:23;7.60;99.90
43641;DHT22;72791;52.546;13.570;2024-02-21T00:59:49;7.60;99.90
43641;DHT22;72791;52.546;13.570;2024-02-21T01:02:15;7.60;99.90
43641;DHT22;72791;52.546;13.570;2024-02-21T01:04:40;7.60;99.90
43641;DHT22;72791;52.546;13.570;2024-02-21T01:07:06;7.60;99.90
43641;DHT22;72791;52.546;13.570;2024-02-21T01:09:32;7.60;99.90
43641;DHT22;72791;52.546;13.570;2024-02-21T01:11:57;7.60;99.90
43641;DHT22;72791;52.546;13.570;2024-02-21T01:14:23;7.50;99.90
43641;DHT22;72791;52.546;13.570;2024-02-21T01:16:50;7.50;99.90
43641;DHT22;72791;52.546;13.570;2024-02-21T01:19:18;7.50;99.90
43641;DHT22;72791;52.546;13.570;2024-02-21T01:21:44;7.50;99.90
43641;DHT22;72791;52.546;13.570;2024-02-21T01:24:11;7.50;99.90
43641;DHT22;72791;52.546;13.570;2024-02-21T01:26:42;7.50;99.90
43641;DHT22;72791;52.546;13.570;2024-02-21T01:29:08;7.50;99.90
43641;DHT22;72791;52.546;13.570;2024-02-21T01:31:33;7.50;99.90
43641;DHT22;72791;52.546;13.570;2024-02-21T01:33:59;7.50;99.90
43641;DHT22;72791;52.546;13.570;2024-02-21T01:36:25;7.50;99.90
43641;DHT22;72791;52.546;13.570;2024-02-21T01:38:50;7.50;99.90
43641;DHT22;72791;52.546;13.570;2024-02-21T01:41:16;7.60;99.90
43641;DHT22;72791;52.546;13.570;2024-02-21T01:43:43;7.60;99.90
43641;DHT22;72791;52.546;13.570;2024-02-21T01:46:09;7.70;99.90
43641;DHT22;72791;52.546;13.570;2024-02-21T01:48:35;7.70;99.90
43641;DHT22;72791;52.546;13.570;2024-02-21T01:51:02;7.70;99.90
43641;DHT22;72791;52.546;13.570;2024-02-21T01:53:42;7.80;99.90
43641;DHT22;72791;52.546;13.570;2024-02-21T01:56:08;7.80;99.90
43641;DHT22;72791;52.546;13.570;2024-02-21T01:58:36;7.80;99.90
43641;DHT22;72791;52.546;13.570;2024-02-21T02:01:04;7.80;99.90
43641;DHT22;72791;52.546;13.570;2024-02-21T02:03:31;7.90;99.90
43641;DHT22;72791;52.546;13.570;2024-02-21T02:06:00;7.80;99.90
43641;DHT22;72791;52.546;13.570;2024-02-21T02:08:26;7.90;99.90
43641;DHT22;72791;52.546;13.570;2024-02-21T02:10:52;7.90;99.90
43641;DHT22;72791;52.546;13.570;2024-02-21T02:13:18;7.90;99.90
43641;DHT22;72791;52.546;13.570;2024-02-21T02:15:45;7.90;99.90
43641;DHT22;72791;52.546;13.570;2024-02-21T02:18:11;7.90;99.90
43641;DHT22;72791;52.546;13.570;2024-02-21T02:20:38;7.90;99.90
43641;DHT22;72791;52.546;13.570;2024-02-21T02:23:10;7.90;99.90
43641;DHT22;72791;52.546;13.570;2024-02-21T02:25:37;7.90;99.90
43641;DHT22;72791;52.546;13.570;2024-02-21T02:28:07;7.90;99.90
43641;DHT22;72791;52.546;13.570;2024-02-21T02:30:34;8.00;99.90
43641;DHT22;72791;52.546;13.570;2024-02-21T02:33:04;7.90;99.90
43641;DHT22;72791;52.546;13.570;2024-02-21T02:35:32;7.90;99.90
43641;DHT22;72791;52.546;13.570;2024-02-21T02:37:58;7.90;99.90
43641;DHT22;72791;52.546;13.570;2024-02-21T02:40:26;7.90;99.90
43641;DHT22;72791;52.546;13.570;2024-02-21T02:42:54;7.80;99.90
43641;DHT22;72791;52.546;13.570;2024-02-21T02:45:21;7.80;99.90
43641;DHT22;72791;52.546;13.570;2024-02-21T02:47:52;7.70;99.90
43641;DHT22;72791;52.546;13.570;2024-02-21T02:50:26;7.70;99.90
43641;DHT22;72791;52.546;13.570;2024-02-21T02:52:55;7.70;99.90
43641;DHT22;72791;52.546;13.570;2024-02-21T02:55:21;7.60;99.90
43641;DHT22;72791;52.546;13.570;2024-02-21T02:57:47;7.60;99.90
43641;DHT22;72791;52.546;13.570;2024-02-21T03:00:14;7.60;99.90
43641;DHT22;72791;52.546;13.570;2024-02-21T03:02:42;7.50;99.90
43641;DHT22;72791;52.546;13.570;2024-02-21T03:05:15;7.50;99.90
43641;DHT22;72791;52.546;13.570;2024-02-21T03:07:41;7.50;99.90
43641;DHT22;72791;52.546;13.570;2024-02-21T03:10:09;7.50;99.90
43641;DHT22;72791;52.546;13.570;2024-02-21T03:12:34;7.50;99.90
43641;DHT22;72791;52.546;13.570;2024-02-21T03:15:02;7.50;99.90
43641;DHT22;72791;52.546;13.570;2024-02-21T03:17:29;7.50;99.90
43641;DHT22;72791;52.546;13.570;2024-02-21T03:19:54;7.40;99.90
43641;DHT22;72791;52.546;13.570;2024-02-21T03:22:21;7.40;99.90
43641;DHT22;72791;52.546;13.570;2024-02-21T03:24:47;7.40;99.90
43641;DHT22;72791;52.546;13.570;2024-02-21T03:27:13;7.40;99.90
43641;DHT22;72791;52.546;13.570;2024-02-21T03:29:39;7.40;99.90
43641;DHT22;72791;52.546;13.570;2024-02-21T03:32:04;7.40;99.90
43641;DHT22;72791;52.546;13.570;2024-02-21T03:34:30;7.40;99.90
43641;DHT22;72791;52.546;13.570;2024-02-21T03:36:57;7.40;99.90
43641;DHT22;72791;52.546;13.570;2024-02-21T03:39:25;7.40;99.90
43641;DHT22;72791;52.546;13.570;2024-02-21T03:41:52;7.40;99.90
43641;DHT22;72791;52.546;13.570;2024-02-21T03:44:19;7.40;99.90
43641;DHT22;72791;52.546;13.570;2024-02-21T03:46:44;7.40;99.90
43641;DHT22;72791;52.546;13.570;2024-02-21T03:49:10;7.40;99.90
43641;DHT22;72791;52.546;13.570;2024-02-21T03:51:37;7.30;99.90
43641;DHT22;72791;52.546;13.570;2024-02-21T03:54:02;7.30;99.90
43641;DHT22;72791;52.546;13.570;2024-02-21T03:56:28;7.30;99.90
43641;DHT22;72791;52.546;13.570;2024-02-21T03:58:54;7.30;99.90
43641;DHT22;72791;52.546;13.570;2024-02-21T04:01:19;7.20;99.90
43641;DHT22;72791;52.546;13.570;2024-02-21T04:03:46;7.30;99.90
43641;DHT22;72791;52.546;13.570;2024-02-21T04:06:12;7.20;99.90
43641;DHT22;72791;52.546;13.570;2024-02-21T04:08:39;7.20;99.90
43641;DHT22;72791;52.546;13.570;2024-02-21T04:11:05;7.20;99.90
43641;DHT22;72791;52.546;13.570;2024-02-21T04:13:32;7.20;99.90
43641;DHT22;72791;52.546;13.570;2024-02-21T04:15:57;7.20;99.90
43641;DHT22;72791;52.546;13.570;2024-02-21T04:18:23;7.20;99.90
43641;DHT22;72791;52.546;13.570;2024-02-21T04:20:51;7.20;99.90
43641;DHT22;72791;52.546;13.570;2024-02-21T04:23:18;7.20;99.90
43641;DHT22;72791;52.546;13.570;2024-02-21T04:25:45;7.20;99.90
43641;DHT22;72791;52.546;13.570;2024-02-21T04:28:12;7.20;99.90
43641;DHT22;72791;52.546;13.570;2024-02-21T04:30:39;7.20;99.90
43641;DHT22;72791;52.546;13.570;2024-02-21T04:33:08;7.20;99.90
43641;DHT22;72791;52.546;13.570;2024-02-21T04:35:36;7.20;99.90
43641;DHT22;72791;52.546;13.570;2024-02-21T04:38:03;7.20;99.90
43641;DHT22;72791;52.546;13.570;2024-02-21T04:40:29;7.20;99.90
43641;DHT22;72791;52.546;13.570;2024-02-21T04:42:57;7.20;99.90
43641;DHT22;72791;52.546;13.570;2024-02-21T04:45:24;7.20;99.90
43641;DHT22;72791;52.546;13.570;2024-02-21T04:47:49;7.20;99.90
43641;DHT22;72791;52.546;13.570;2024-02-21T04:50:16;7.20;99.90
43641;DHT22;72791;52.546;13.570;2024-02-21T04:52:42;7.10;99.90
43641;DHT22;72791;52.546;13.570;2024-02-21T04:55:08;7.10;99.90
43641;DHT22;72791;52.546;13.570;2024-02-21T04:57:34;7.10;99.90
43641;DHT22;72791;52.546;13.570;2024-02-21T04:59:59;7.10;99.90
43641;DHT22;72791;52.546;13.570;2024-02-21T05:02:26;7.10;99.90
43641;DHT22;72791;52.546;13.570;2024-02-21T05:04:52;7.10;99.90
43641;DHT22;72791;52.546;13.570;2024-02-21T05:07:19;7.10;99.90
43641;DHT22;72791;52.546;13.570;2024-02-21T05:09:46;7.10;99.90
43641;DHT22;72791;52.546;13.570;2024-02-21T05:12:15;7.10;99.90
43641;DHT22;72791;52.546;13.570;2024-02-21T05:14:41;7.20;99.90
43641;DHT22;72791;52.546;13.570;2024-02-21T05:17:07;7.20;99.90
43641;DHT22;72791;52.546;13.570;2024-02-21T05:19:34;7.20;99.90
43641;DHT22;72791;52.546;13.570;2024-02-21T05:22:00;7.20;99.90
43641;DHT22;72791;52.546;13.570;2024-02-21T05:24:26;7.20;99.90
43641;DHT22;72791;52.546;13.570;2024-02-21T05:26:53;7.20;99.90
43641;DHT22;72791;52.546;13.570;2024-02-21T05:29:20;7.20;99.90
43641;DHT22;72791;52.546;13.570;2024-02-21T05:34:21;7.20;99.90
43641;DHT22;72791;52.546;13.570;2024-02-21T05:36:47;7.20;99.90
43641;DHT22;72791;52.546;13.570;2024-02-21T05:39:21;7.20;99.90
43641;DHT22;72791;52.546;13.570;2024-02-21T05:41:49;7.20;99.90
43641;DHT22;72791;52.546;13.570;2024-02-21T05:44:15;7.20;99.90
43641;DHT22;72791;52.546;13.570;2024-02-21T05:46:41;7.20;99.90
43641;DHT22;72791;52.546;13.570;2024-02-21T05:49:08;7.20;99.90
43641;DHT22;72791;52.546;13.570;2024-02-21T05:51:38;7.20;99.90
43641;DHT22;72791;52.546;13.570;2024-02-21T05:54:04;7.20;99.90
43641;DHT22;72791;52.546;13.570;2024-02-21T05:56:30;7.20;99.90
43641;DHT22;72791;52.546;13.570;2024-02-21T05:58:56;7.20;99.90
43641;DHT22;72791;52.546;13.570;2024-02-21T06:01:23;7.20;99.90
43641;DHT22;72791;52.546;13.570;2024-02-21T06:03:50;7.20;99.90
43641;DHT22;72791;52.546;13.570;2024-02-21T06:06:16;7.20;99.90
43641;DHT22;72791;52.546;13.570;2024-02-21T06:08:42;7.30;99.90
43641;DHT22;72791;52.546;13.570;2024-02-21T06:11:08;7.30;99.90
43641;DHT22;72791;52.546;13.570;2024-02-21T06:13:38;7.30;99.90
43641;DHT22;72791;52.546;13.570;2024-02-21T06:16:06;7.30;99.90
43641;DHT22;72791;52.546;13.570;2024-02-21T06:18:36;7.30;99.90
43641;DHT22;72791;52.546;13.570;2024-02-21T06:21:03;7.30;99.90
43641;DHT22;72791;52.546;13.570;2024-02-21T06:23:29;7.30;99.90
43641;DHT22;72791;52.546;13.570;2024-02-21T06:25:56;7.30;99.90
43641;DHT22;72791;52.546;13.570;2024-02-21T06:28:22;7.30;99.90
43641;DHT22;72791;52.546;13.570;2024-02-21T06:30:47;7.30;99.90
43641;DHT22;72791;52.546;13.570;2024-02-21T06:33:13;7.30;99.90
43641;DHT22;72791;52.546;13.570;2024-02-21T06:35:39;7.40;99.90
43641;DHT22;72791;52.546;13.570;2024-02-21T06:38:07;7.40;99.90
43641;DHT22;72791;52.546;13.570;2024-02-21T06:40:33;7.40;99.90
43641;DHT22;72791;52.546;13.570;2024-02-21T06:43:05;7.40;99.90
43641;DHT22;72791;52.546;13.570;2024-02-21T06:45:30;7.40;99.90
43641;DHT22;72791;52.546;13.570;2024-02-21T06:47:56;7.40;99.90
43641;DHT22;72791;52.546;13.570;2024-02-21T06:50:24;7.40;99.90
43641;DHT22;72791;52.546;13.570;2024-02-21T06:52:50;7.40;99.90
43641;DHT22;72791;52.546;13.570;2024-02-21T06:55:15;7.50;99.90
43641;DHT22;72791;52.546;13.570;2024-02-21T06:57:42;7.50;99.90
43641;DHT22;72791;52.546;13.570;2024-02-21T07:00:09;7.50;99.90
43641;DHT22;72791;52.546;13.570;2024-02-21T07:02:34;7.60;99.90
43641;DHT22;72791;52.546;13.570;2024-02-21T07:05:02;7.60;99.90
43641;DHT22;72791;52.546;13.570;2024-02-21T07:07:27;7.60;99.90
43641;DHT22;72791;52.546;13.570;2024-02-21T07:09:54;7.60;99.90
43641;DHT22;72791;52.546;13.570;2024-02-21T07:12:21;7.60;99.90
43641;DHT22;72791;52.546;13.570;2024-02-21T07:14:48;7.70;99.90
43641;DHT22;72791;52.546;13.570;2024-02-21T07:17:14;7.70;99.90
43641;DHT22;72791;52.546;13.570;2024-02-21T07:19:41;7.70;99.90
43641;DHT22;72791;52.546;13.570;2024-02-21T07:22:08;7.70;99.90
43641;DHT22;72791;52.546;13.570;2024-02-21T07:24:36;7.70;99.90
43641;DHT22;72791;52.546;13.570;2024-02-21T07:27:03;7.70;99.90
43641;DHT22;72791;52.546;13.570;2024-02-21T07:29:32;7.70;99.90
43641;DHT22;72791;52.546;13.570;2024-02-21T07:31:58;7.70;99.90
43641;DHT22;72791;52.546;13.570;2024-02-21T07:34:23;7.70;99.90
43641;DHT22;72791;52.546;13.570;2024-02-21T07:36:49;7.80;99.90
43641;DHT22;72791;52.546;13.570;2024-02-21T07:39:18;7.80;99.90
43641;DHT22;72791;52.546;13.570;2024-02-21T07:41:44;7.80;99.90
43641;DHT22;72791;52.546;13.570;2024-02-21T07:44:11;7.90;99.90
43641;DHT22;72791;52.546;13.570;2024-02-21T07:46:37;7.90;99.90
43641;DHT22;72791;52.546;13.570;2024-02-21T07:49:03;7.90;99.90
43641;DHT22;72791;52.546;13.570;2024-02-21T07:51:29;7.90;99.90
43641;DHT22;72791;52.546;13.570;2024-02-21T07:53:56;7.90;99.90
43641;DHT22;72791;52.546;13.570;2024-02-21T07:56:22;7.90;99.90
43641;DHT22;72791;52.546;13.570;2024-02-21T07:58:48;7.90;99.90
43641;DHT22;72791;52.546;13.570;2024-02-21T08:01:19;7.90;99.90
43641;DHT22;72791;52.546;13.570;2024-02-21T08:03:49;8.00;99.90
43641;DHT22;72791;52.546;13.570;2024-02-21T08:06:15;8.00;99.90
43641;DHT22;72791;52.546;13.570;2024-02-21T08:08:41;8.00;99.90
43641;DHT22;72791;52.546;13.570;2024-02-21T08:11:07;8.00;99.90
43641;DHT22;72791;52.546;13.570;2024-02-21T08:13:33;8.00;99.90
43641;DHT22;72791;52.546;13.570;2024-02-21T08:15:58;8.10;99.90
43641;DHT22;72791;52.546;13.570;2024-02-21T08:18:25;8.00;99.90
43641;DHT22;72791;52.546;13.570;2024-02-21T08:20:50;8.10;99.90
43641;DHT22;72791;52.546;13.570;2024-02-21T08:23:18;8.10;99.90
43641;DHT22;72791;52.546;13.570;2024-02-21T08:25:44;8.10;99.90
43641;DHT22;72791;52.546;13.570;2024-02-21T08:28:11;8.20;99.90
43641;DHT22;72791;52.546;13.570;2024-02-21T08:30:38;8.20;99.90
43641;DHT22;72791;52.546;13.570;2024-02-21T08:33:04;8.30;99.90
43641;DHT22;72791;52.546;13.570;2024-02-21T08:35:30;8.30;99.90
43641;DHT22;72791;52.546;13.570;2024-02-21T08:37:55;8.40;99.90
43641;DHT22;72791;52.546;13.570;2024-02-21T08:40:21;8.40;99.90
43641;DHT22;72791;52.546;13.570;2024-02-21T08:42:47;8.50;99.90
43641;DHT22;72791;52.546;13.570;2024-02-21T08:45:13;8.60;99.90
43641;DHT22;72791;52.546;13.570;2024-02-21T08:47:41;8.70;99.90
43641;DHT22;72791;52.546;13.570;2024-02-21T08:50:08;8.80;99.90
43641;DHT22;72791;52.546;13.570;2024-02-21T08:52:35;8.90;99.90
43641;DHT22;72791;52.546;13.570;2024-02-21T08:55:01;9.00;99.90
43641;DHT22;72791;52.546;13.570;2024-02-21T08:57:27;9.10;99.90
43641;DHT22;72791;52.546;13.570;2024-02-21T08:59:54;9.10;99.90
43641;DHT22;72791;52.546;13.570;2024-02-21T09:02:21;9.20;99.90
43641;DHT22;72791;52.546;13.570;2024-02-21T09:04:46;9.20;99.90
43641;DHT22;72791;52.546;13.570;2024-02-21T09:07:12;9.20;99.90
43641;DHT22;72791;52.546;13.570;2024-02-21T09:09:39;9.30;99.90
43641;DHT22;72791;52.546;13.570;2024-02-21T09:12:08;9.40;99.90
43641;DHT22;72791;52.546;13.570;2024-02-21T09:14:36;9.30;99.90
43641;DHT22;72791;52.546;13.570;2024-02-21T09:17:04;9.30;99.90
43641;DHT22;72791;52.546;13.570;2024-02-21T09:19:29;9.40;99.90
43641;DHT22;72791;52.546;13.570;2024-02-21T09:21:55;9.30;99.90
43641;DHT22;72791;52.546;13.570;2024-02-21T09:24:21;9.40;99.90
43641;DHT22;72791;52.546;13.570;2024-02-21T09:26:46;9.40;99.90
43641;DHT22;72791;52.546;13.570;2024-02-21T09:29:13;9.40;99.90
43641;DHT22;72791;52.546;13.570;2024-02-21T09:31:38;9.40;99.90
43641;DHT22;72791;52.546;13.570;2024-02-21T09:34:05;9.40;99.90
43641;DHT22;72791;52.546;13.570;2024-02-21T09:36:32;9.50;99.90
43641;DHT22;72791;52.546;13.570;2024-02-21T09:38:59;9.50;99.90
43641;DHT22;72791;52.546;13.570;2024-02-21T09:41:27;9.60;99.90
43641;DHT22;72791;52.546;13.570;2024-02-21T09:43:53;9.70;99.90
43641;DHT22;72791;52.546;13.570;2024-02-21T09:49:29;9.80;99.90
43641;DHT22;72791;52.546;13.570;2024-02-21T09:51:57;9.90;99.90
43641;DHT22;72791;52.546;13.570;2024-02-21T09:54:27;10.20;99.90
43641;DHT22;72791;52.546;13.570;2024-02-21T09:56:53;10.20;99.90
43641;DHT22;72791;52.546;13.570;2024-02-21T09:59:19;10.40;99.90
43641;DHT22;72791;52.546;13.570;2024-02-21T10:01:47;10.40;99.90
43641;DHT22;72791;52.546;13.570;2024-02-21T10:04:13;10.50;99.90
43641;DHT22;72791;52.546;13.570;2024-02-21T10:06:39;10.50;99.90
43641;DHT22;72791;52.546;13.570;2024-02-21T10:09:07;10.60;99.90
43641;DHT22;72791;52.546;13.570;2024-02-21T10:11:36;10.60;99.90
43641;DHT22;72791;52.546;13.570;2024-02-21T10:14:08;10.60;99.90
43641;DHT22;72791;52.546;13.570;2024-02-21T10:16:34;10.60;99.90
43641;DHT22;72791;52.546;13.570;2024-02-21T10:19:00;10.60;99.90
43641;DHT22;72791;52.546;13.570;2024-02-21T10:21:26;10.60;99.90
43641;DHT22;72791;52.546;13.570;2024-02-21T10:23:53;10.50;99.90
43641;DHT22;72791;52.546;13.570;2024-02-21T10:26:20;10.60;99.90
43641;DHT22;72791;52.546;13.570;2024-02-21T10:28:48;10.70;99.90
43641;DHT22;72791;52.546;13.570;2024-02-21T10:31:28;10.70;99.90
43641;DHT22;72791;52.546;13.570;2024-02-21T10:33:58;10.70;99.90
43641;DHT22;72791;52.546;13.570;2024-02-21T10:36:25;10.70;99.90
43641;DHT22;72791;52.546;13.570;2024-02-21T10:38:52;10.70;99.90
43641;DHT22;72791;52.546;13.570;2024-02-21T10:41:20;10.80;99.90
43641;DHT22;72791;52.546;13.570;2024-02-21T10:43:51;10.90;99.90
43641;DHT22;72791;52.546;13.570;2024-02-21T10:46:20;11.10;99.90
43641;DHT22;72791;52.546;13.570;2024-02-21T10:48:48;11.20;99.90
43641;DHT22;72791;52.546;13.570;2024-02-21T10:51:20;11.40;99.90
43641;DHT22;72791;52.546;13.570;2024-02-21T10:53:58;11.30;99.90
43641;DHT22;72791;52.546;13.570;2024-02-21T10:56:34;11.20;99.90
43641;DHT22;72791;52.546;13.570;2024-02-21T10:59:02;11.00;99.90
43641;DHT22;72791;52.546;13.570;2024-02-21T11:01:30;10.80;99.90
43641;DHT22;72791;52.546;13.570;2024-02-21T11:04:01;10.80;99.90
43641;DHT22;72791;52.546;13.570;2024-02-21T11:06:29;10.80;99.90
43641;DHT22;72791;52.546;13.570;2024-02-21T11:09:02;11.00;99.90
43641;DHT22;72791;52.546;13.570;2024-02-21T11:11:28;11.00;99.90
43641;DHT22;72791;52.546;13.570;2024-02-21T11:14:07;11.00;99.90
43641;DHT22;72791;52.546;13.570;2024-02-21T11:19:10;10.80;99.90
43641;DHT22;72791;52.546;13.570;2024-02-21T11:21:44;10.80;99.90
43641;DHT22;72791;52.546;13.570;2024-02-21T11:24:11;10.80;99.90
43641;DHT22;72791;52.546;13.570;2024-02-21T11:26:40;10.80;99.90
43641;DHT22;72791;52.546;13.570;2024-02-21T11:29:12;10.80;99.90
43641;DHT22;72791;52.546;13.570;2024-02-21T11:31:48;11.00;99.90
43641;DHT22;72791;52.546;13.570;2024-02-21T11:34:17;11.40;99.90
43641;DHT22;72791;52.546;13.570;2024-02-21T11:36:49;11.50;99.90
43641;DHT22;72791;52.546;13.570;2024-02-21T11:39:24;11.70;99.90
43641;DHT22;72791;52.546;13.570;2024-02-21T11:42:06;11.70;99.90
43641;DHT22;72791;52.546;13.570;2024-02-21T11:44:37;11.50;99.90
43641;DHT22;72791;52.546;13.570;2024-02-21T11:47:04;11.70;99.90
43641;DHT22;72791;52.546;13.570;2024-02-21T11:49:30;11.80;99.90
43641;DHT22;72791;52.546;13.570;2024-02-21T11:52:00;11.90;99.90
43641;DHT22;72791;52.546;13.570;2024-02-21T11:54:30;11.90;99.90
43641;DHT22;72791;52.546;13.570;2024-02-21T11:56:56;12.00;99.90
43641;DHT22;72791;52.546;13.570;2024-02-21T11:59:22;12.00;99.90
43641;DHT22;72791;52.546;13.570;2024-02-21T12:01:49;11.90;99.90
43641;DHT22;72791;52.546;13.570;2024-02-21T12:04:19;11.70;99.90
43641;DHT22;72791;52.546;13.570;2024-02-21T12:06:45;11.70;99.90
43641;DHT22;72791;52.546;13.570;2024-02-21T12:09:19;11.70;99.90
43641;DHT22;72791;52.546;13.570;2024-02-21T12:11:56;11.70;99.90
43641;DHT22;72791;52.546;13.570;2024-02-21T12:14:24;11.80;99.90
43641;DHT22;72791;52.546;13.570;2024-02-21T12:16:52;12.00;99.90
43641;DHT22;72791;52.546;13.570;2024-02-21T12:19:17;12.00;99.90
43641;DHT22;72791;52.546;13.570;2024-02-21T12:21:43;12.20;99.90
43641;DHT22;72791;52.546;13.570;2024-02-21T12:26:42;12.50;99.90
43641;DHT22;72791;52.546;13.570;2024-02-21T12:29:08;12.40;99.90
43641;DHT22;72791;52.546;13.570;2024-02-21T12:31:36;12.30;99.90
43641;DHT22;72791;52.546;13.570;2024-02-21T12:34:02;12.50;99.90
43641;DHT22;72791;52.546;13.570;2024-02-21T12:36:32;12.60;99.90
43641;DHT22;72791;52.546;13.570;2024-02-21T12:38:59;12.70;99.90
43641;DHT22;72791;52.546;13.570;2024-02-21T12:41:29;12.60;99.90
43641;DHT22;72791;52.546;13.570;2024-02-21T12:43:57;12.60;99.90
43641;DHT22;72791;52.546;13.570;2024-02-21T12:46:25;12.50;99.90
43641;DHT22;72791;52.546;13.570;2024-02-21T12:48:51;12.40;99.90
43641;DHT22;72791;52.546;13.570;2024-02-21T12:51:16;12.40;99.90
43641;DHT22;72791;52.546;13.570;2024-02-21T12:53:48;12.30;99.90
43641;DHT22;72791;52.546;13.570;2024-02-21T12:56:16;12.20;99.90
43641;DHT22;72791;52.546;13.570;2024-02-21T12:58:42;12.10;99.90
43641;DHT22;72791;52.546;13.570;2024-02-21T13:01:07;12.00;99.90
43641;DHT22;72791;52.546;13.570;2024-02-21T13:03:34;12.10;99.90
43641;DHT22;72791;52.546;13.570;2024-02-21T13:06:00;12.00;99.90
43641;DHT22;72791;52.546;13.570;2024-02-21T13:08:27;12.10;99.90
43641;DHT22;72791;52.546;13.570;2024-02-21T13:10:53;12.20;99.90
43641;DHT22;72791;52.546;13.570;2024-02-21T13:13:19;12.30;99.90
43641;DHT22;72791;52.546;13.570;2024-02-21T13:15:45;12.50;99.90
43641;DHT22;72791;52.546;13.570;2024-02-21T13:18:11;12.70;99.90
43641;DHT22;72791;52.546;13.570;2024-02-21T13:20:38;12.70;99.90
43641;DHT22;72791;52.546;13.570;2024-02-21T13:23:04;12.70;99.90
43641;DHT22;72791;52.546;13.570;2024-02-21T13:25:30;12.60;99.90
43641;DHT22;72791;52.546;13.570;2024-02-21T13:27:55;12.40;99.90
43641;DHT22;72791;52.546;13.570;2024-02-21T13:30:23;12.30;99.90
43641;DHT22;72791;52.546;13.570;2024-02-21T13:32:59;12.10;99.90
43641;DHT22;72791;52.546;13.570;2024-02-21T13:35:26;11.90;99.90
43641;DHT22;72791;52.546;13.570;2024-02-21T13:37:53;11.90;99.90
43641;DHT22;72791;52.546;13.570;2024-02-21T13:40:39;11.80;99.90
43641;DHT22;72791;52.546;13.570;2024-02-21T13:43:07;11.80;99.90
43641;DHT22;72791;52.546;13.570;2024-02-21T13:45:33;11.80;99.90
43641;DHT22;72791;52.546;13.570;2024-02-21T13:47:58;11.70;99.90
43641;DHT22;72791;52.546;13.570;2024-02-21T13:50:30;11.70;99.90
43641;DHT22;72791;52.546;13.570;2024-02-21T13:52:57;11.70;99.90
43641;DHT22;72791;52.546;13.570;2024-02-21T13:55:28;11.70;99.90
43641;DHT22;72791;52.546;13.570;2024-02-21T13:57:59;11.70;99.90
43641;DHT22;72791;52.546;13.570;2024-02-21T14:00:25;11.60;99.90
43641;DHT22;72791;52.546;13.570;2024-02-21T14:02:53;11.60;99.90
43641;DHT22;72791;52.546;13.570;2024-02-21T14:05:20;11.60;99.90
43641;DHT22;72791;52.546;13.570;2024-02-21T14:07:50;11.50;99.90
43641;DHT22;72791;52.546;13.570;2024-02-21T14:10:16;11.40;99.90
43641;DHT22;72791;52.546;13.570;2024-02-21T14:12:48;11.30;99.90
43641;DHT22;72791;52.546;13.570;2024-02-21T14:15:17;11.30;99.90
43641;DHT22;72791;52.546;13.570;2024-02-21T14:17:45;11.30;99.90
43641;DHT22;72791;52.546;13.570;2024-02-21T14:20:32;11.30;99.90
43641;DHT22;72791;52.546;13.570;2024-02-21T14:23:23;11.30;99.90
43641;DHT22;72791;52.546;13.570;2024-02-21T14:25:51;11.30;99.90
43641;DHT22;72791;52.546;13.570;2024-02-21T14:28:17;11.30;99.90
43641;DHT22;72791;52.546;13.570;2024-02-21T14:30:47;11.30;99.90
43641;DHT22;72791;52.546;13.570;2024-02-21T14:33:15;11.30;99.90
43641;DHT22;72791;52.546;13.570;2024-02-21T14:35:45;11.30;99.90
43641;DHT22;72791;52.546;13.570;2024-02-21T14:38:12;11.30;99.90
43641;DHT22;72791;52.546;13.570;2024-02-21T14:40:59;11.30;99.90
43641;DHT22;72791;52.546;13.570;2024-02-21T14:43:46;11.30;99.90
43641;DHT22;72791;52.546;13.570;2024-02-21T14:46:22;11.30;99.90
43641;DHT22;72791;52.546;13.570;2024-02-21T14:48:57;11.20;99.90
43641;DHT22;72791;52.546;13.570;2024-02-21T14:51:23;11.20;99.90
43641;DHT22;72791;52.546;13.570;2024-02-21T14:53:57;11.20;99.90
43641;DHT22;72791;52.546;13.570;2024-02-21T14:56:30;11.30;99.90
43641;DHT22;72791;52.546;13.570;2024-02-21T14:58:59;11.20;99.90
43641;DHT22;72791;52.546;13.570;2024-02-21T15:01:36;11.20;99.90
43641;DHT22;72791;52.546;13.570;2024-02-21T15:04:08;11.20;99.90
43641;DHT22;72791;52.546;13.570;2024-02-21T15:06:40;11.20;99.90
43641;DHT22;72791;52.546;13.570;2024-02-21T15:09:06;11.20;99.90
43641;DHT22;72791;52.546;13.570;2024-02-21T15:11:36;11.20;99.90
43641;DHT22;72791;52.546;13.570;2024-02-21T15:14:06;11.20;99.90
43641;DHT22;72791;52.546;13.570;2024-02-21T15:16:37;11.20;99.90
43641;DHT22;72791;52.546;13.570;2024-02-21T15:19:07;11.20;99.90
43641;DHT22;72791;52.546;13.570;2024-02-21T15:21:36;11.20;99.90
43641;DHT22;72791;52.546;13.570;2024-02-21T15:24:03;11.20;99.90
43641;DHT22;72791;52.546;13.570;2024-02-21T15:26:30;11.20;99.90
43641;DHT22;72791;52.546;13.570;2024-02-21T15:29:03;11.20;99.90
43641;DHT22;72791;52.546;13.570;2024-02-21T15:31:34;11.10;99.90
43641;DHT22;72791;52.546;13.570;2024-02-21T15:34:01;11.10;99.90
43641;DHT22;72791;52.546;13.570;2024-02-21T15:36:27;11.00;99.90
43641;DHT22;72791;52.546;13.570;2024-02-21T15:38:54;10.90;99.90